Time;durP1;ratioP1;P1;durP2;ratioP2;P2;SDS_P1;SDS_P2;PMS_P1;PMS_P2;Temp;Humidity;BMP_temperature;BMP_pressure;BME280_temperature;BME280_humidity;BME280_pressure;Samples;Min_cycle;Max_cycle;Signal;HPM_P1;HPM_P2
2023/08/02 00:01:01;;;;;;;12.00;2.10;;;15.90;99.90;;;;;;5053858;28;20559;-70
2023/08/02 00:03:27;;;;;;;7.13;1.42;;;15.90;99.90;;;;;;5053316;28;20445;-70
2023/08/02 00:05:57;;;;;;;6.50;1.73;;;15.90;99.90;;;;;;5053726;28;20025;-70
2023/08/02 00:08:24;;;;;;;8.95;2.20;;;15.90;99.90;;;;;;5052465;28;20053;-69
2023/08/02 00:10:50;;;;;;;9.80;1.90;;;15.80;99.90;;;;;;5053497;28;20029;-69
2023/08/02 00:13:15;;;;;;;6.47;1.50;;;15.80;99.90;;;;;;5051914;28;20622;-71
2023/08/02 00:15:41;;;;;;;7.60;2.08;;;15.70;99.90;;;;;;5051378;28;20828;-72
2023/08/02 00:18:08;;;;;;;8.35;1.48;;;15.70;99.90;;;;;;5055674;28;20036;-70
2023/08/02 00:20:33;;;;;;;9.80;1.63;;;15.70;99.90;;;;;;5049405;28;20063;-70
2023/08/02 00:22:59;;;;;;;12.63;2.33;;;15.70;99.90;;;;;;5059731;28;20060;-70
2023/08/02 00:25:24;;;;;;;6.47;1.80;;;15.60;99.90;;;;;;5055859;28;20109;-70
2023/08/02 00:27:50;;;;;;;9.10;1.80;;;15.60;99.90;;;;;;5051565;28;20029;-71
2023/08/02 00:30:16;;;;;;;7.35;2.28;;;15.60;99.90;;;;;;5057000;28;20050;-71
2023/08/02 00:32:45;;;;;;;10.40;2.28;;;15.60;99.90;;;;;;5056343;28;20043;-69
2023/08/02 00:35:11;;;;;;;7.13;1.33;;;15.70;99.90;;;;;;5053984;28;20032;-69
2023/08/02 00:37:37;;;;;;;8.20;1.60;;;15.70;99.90;;;;;;5058015;28;20573;-70
2023/08/02 00:40:03;;;;;;;8.70;1.52;;;15.60;99.90;;;;;;5056831;28;20041;-70
2023/08/02 00:42:30;;;;;;;5.60;2.08;;;15.60;99.90;;;;;;5057164;28;20040;-70
2023/08/02 00:44:55;;;;;;;8.63;1.50;;;15.60;99.90;;;;;;5053984;28;20041;-69
2023/08/02 00:47:22;;;;;;;13.93;2.40;;;15.60;99.90;;;;;;5050733;28;20032;-69
2023/08/02 00:49:48;;;;;;;10.35;1.55;;;15.60;99.90;;;;;;5053865;28;20052;-69
2023/08/02 00:52:13;;;;;;;8.90;1.77;;;15.60;99.90;;;;;;5052325;28;20494;-70
2023/08/02 00:54:41;;;;;;;9.82;2.13;;;15.60;99.90;;;;;;5056504;28;20044;-70
2023/08/02 00:57:08;;;;;;;24.42;2.50;;;15.60;99.90;;;;;;5056688;28;20074;-71
2023/08/02 00:59:42;;;;;;;7.82;1.65;;;15.60;99.90;;;;;;5052589;28;20384;-70
2023/08/02 01:02:08;;;;;;;10.05;1.92;;;15.60;99.90;;;;;;5060250;28;20032;-71
2023/08/02 01:04:35;;;;;;;5.57;1.35;;;15.60;99.90;;;;;;5056520;28;20028;-69
2023/08/02 01:07:26;;;;;;;6.07;2.03;;;15.60;99.90;;;;;;5057253;28;20033;-69
2023/08/02 01:10:11;;;;;;;7.65;1.70;;;15.70;99.90;;;;;;5056127;28;20202;-69
2023/08/02 01:12:40;;;;;;;5.88;1.85;;;15.70;99.90;;;;;;5055348;28;20037;-69
2023/08/02 01:15:07;;;;;;;4.95;1.38;;;15.70;99.90;;;;;;5065372;28;20028;-70
2023/08/02 01:17:34;;;;;;;9.70;2.20;;;15.80;99.90;;;;;;5058173;28;20043;-69
2023/08/02 01:20:06;;;;;;;7.25;1.77;;;15.80;99.90;;;;;;5056741;28;20040;-70
2023/08/02 01:22:32;;;;;;;9.63;2.13;;;15.80;99.90;;;;;;5060000;28;20047;-69
2023/08/02 01:25:00;;;;;;;7.03;1.52;;;15.70;99.90;;;;;;5056573;28;20040;-69
2023/08/02 01:27:34;;;;;;;5.30;1.33;;;15.70;99.90;;;;;;5055668;28;20174;-71
2023/08/02 01:30:01;;;;;;;10.73;1.90;;;15.60;99.90;;;;;;5056848;28;20039;-69
2023/08/02 01:32:27;;;;;;;5.63;1.50;;;15.60;99.90;;;;;;5058682;28;20065;-70
2023/08/02 01:34:53;;;;;;;8.88;1.98;;;15.60;99.90;;;;;;5055941;28;20044;-70
2023/08/02 01:37:19;;;;;;;4.63;2.08;;;15.60;99.90;;;;;;5058427;28;20032;-70
2023/08/02 01:39:45;;;;;;;6.00;1.70;;;15.50;99.90;;;;;;5060139;28;20052;-70
2023/08/02 01:42:11;;;;;;;7.93;1.80;;;15.50;99.90;;;;;;5055582;28;20040;-70
2023/08/02 01:44:37;;;;;;;6.32;2.15;;;15.50;99.90;;;;;;5057870;28;20564;-71
2023/08/02 01:47:02;;;;;;;6.30;2.00;;;15.50;99.90;;;;;;5057863;28;20117;-70
2023/08/02 01:49:28;;;;;;;10.70;1.88;;;15.50;99.90;;;;;;5062255;28;20048;-70
2023/08/02 01:51:53;;;;;;;8.75;2.42;;;15.40;99.90;;;;;;5057751;28;20041;-70
2023/08/02 01:54:19;;;;;;;7.45;2.20;;;15.40;99.90;;;;;;5059227;28;20119;-70
2023/08/02 01:56:45;;;;;;;8.60;2.03;;;15.50;99.90;;;;;;5057083;28;20132;-70
2023/08/02 01:59:12;;;;;;;11.02;3.22;;;15.50;99.90;;;;;;5059510;28;20041;-70
2023/08/02 02:01:38;;;;;;;6.07;1.90;;;15.50;99.90;;;;;;5063703;28;20394;-70
2023/08/02 02:04:04;;;;;;;6.82;1.90;;;15.40;99.90;;;;;;5057023;28;20041;-70
2023/08/02 02:06:29;;;;;;;8.48;1.95;;;15.40;99.90;;;;;;5064583;28;20366;-69
2023/08/02 02:08:55;;;;;;;9.70;3.15;;;15.50;99.90;;;;;;5054958;28;20538;-71
2023/08/02 02:11:20;;;;;;;5.95;2.13;;;15.50;99.90;;;;;;5058058;28;20068;-70
2023/08/02 02:13:46;;;;;;;6.57;2.13;;;15.50;99.90;;;;;;5053542;28;20578;-70
2023/08/02 02:16:12;;;;;;;8.20;1.98;;;15.50;99.90;;;;;;5050399;28;20032;-70
2023/08/02 02:18:37;;;;;;;7.60;2.00;;;15.50;99.90;;;;;;5057792;28;20125;-71
2023/08/02 02:21:03;;;;;;;5.97;1.60;;;15.40;99.90;;;;;;5056461;28;20494;-70
2023/08/02 02:23:28;;;;;;;5.20;2.30;;;15.50;99.90;;;;;;5055960;28;20037;-70
2023/08/02 02:25:55;;;;;;;6.43;2.08;;;15.40;99.90;;;;;;5056737;28;20044;-70
2023/08/02 02:28:20;;;;;;;12.35;1.85;;;15.50;99.90;;;;;;5056494;28;20551;-70
2023/08/02 02:30:46;;;;;;;8.65;2.00;;;15.40;99.90;;;;;;5058045;28;20136;-71
2023/08/02 02:33:11;;;;;;;6.47;2.13;;;15.40;99.90;;;;;;5055743;28;20410;-71
2023/08/02 02:51:09;;;;;;;6.88;2.05;;;15.40;99.90;;;;;;5409311;23;20413;-72
2023/08/02 02:53:35;;;;;;;6.80;1.73;;;15.40;99.90;;;;;;5067054;28;20437;-72
2023/08/02 02:56:00;;;;;;;7.57;1.92;;;15.40;99.90;;;;;;5067738;28;20033;-71
2023/08/02 02:58:26;;;;;;;8.77;1.58;;;15.40;99.90;;;;;;5049652;28;20032;-71
2023/08/02 03:00:53;;;;;;;8.40;2.17;;;15.30;99.90;;;;;;5067100;28;20025;-72
2023/08/02 03:03:19;;;;;;;10.65;2.08;;;15.30;99.90;;;;;;5049649;28;20055;-71
2023/08/02 03:05:45;;;;;;;7.72;2.17;;;15.30;99.90;;;;;;5066431;28;20504;-72
2023/08/02 03:08:10;;;;;;;6.75;2.03;;;15.30;99.90;;;;;;5068002;28;20029;-72
2023/08/02 03:10:36;;;;;;;5.68;1.92;;;15.30;99.90;;;;;;5066870;28;20499;-73
2023/08/02 03:13:01;;;;;;;5.75;2.50;;;15.30;99.90;;;;;;5068088;28;20024;-72
2023/08/02 03:15:27;;;;;;;9.50;2.40;;;15.30;99.90;;;;;;5067750;28;20048;-72
2023/08/02 03:17:52;;;;;;;13.18;2.17;;;15.20;99.90;;;;;;5066825;28;20040;-72
2023/08/02 03:20:18;;;;;;;8.93;2.15;;;15.20;99.90;;;;;;5050127;28;20048;-72
2023/08/02 03:22:44;;;;;;;8.57;1.83;;;15.20;99.90;;;;;;5066332;28;20041;-72
2023/08/02 03:25:09;;;;;;;8.30;2.50;;;15.20;99.90;;;;;;5067492;28;20047;-71
2023/08/02 03:27:35;;;;;;;10.25;1.92;;;15.20;99.90;;;;;;5066538;28;20071;-72
2023/08/02 03:30:00;;;;;;;6.90;1.95;;;15.20;99.90;;;;;;5045834;28;20047;-72
2023/08/02 03:32:26;;;;;;;4.63;1.70;;;15.20;99.90;;;;;;5049939;28;20041;-73
2023/08/02 03:34:51;;;;;;;7.88;2.03;;;15.10;99.90;;;;;;5066456;28;20040;-72
2023/08/02 03:37:17;;;;;;;8.65;1.90;;;15.10;99.90;;;;;;5066586;28;20060;-72
2023/08/02 03:39:43;;;;;;;8.75;2.22;;;15.20;99.90;;;;;;5066830;28;20040;-72
2023/08/02 03:42:08;;;;;;;5.82;1.80;;;15.20;99.90;;;;;;5067374;28;20037;-71
2023/08/02 03:44:34;;;;;;;6.20;1.95;;;15.20;99.90;;;;;;5066406;28;20060;-73
2023/08/02 03:46:59;;;;;;;7.55;2.00;;;15.30;99.90;;;;;;5067176;28;20036;-72
2023/08/02 03:49:25;;;;;;;3.78;1.58;;;15.30;99.90;;;;;;5067422;28;20040;-72
2023/08/02 03:51:50;;;;;;;5.30;2.10;;;15.40;99.90;;;;;;5066447;28;20083;-71
2023/08/02 03:54:16;;;;;;;12.40;2.40;;;15.40;99.90;;;;;;5067077;28;20036;-72
2023/08/02 03:56:41;;;;;;;6.70;1.60;;;15.50;99.90;;;;;;5065991;28;20047;-72
2023/08/02 03:59:07;;;;;;;4.63;1.70;;;15.50;99.90;;;;;;5067286;28;20111;-71
2023/08/02 04:01:33;;;;;;;8.73;1.85;;;15.50;99.90;;;;;;5067509;28;20032;-72
2023/08/02 04:03:58;;;;;;;6.13;1.95;;;15.60;99.90;;;;;;5066564;28;20041;-72
2023/08/02 04:06:24;;;;;;;8.32;2.13;;;15.60;99.90;;;;;;5067317;28;20032;-72
2023/08/02 04:08:49;;;;;;;5.97;1.60;;;15.60;99.90;;;;;;5066046;28;20113;-71
2023/08/02 04:11:15;;;;;;;5.90;1.58;;;15.60;99.90;;;;;;5067152;28;20029;-72
2023/08/02 04:13:40;;;;;;;8.48;2.17;;;15.60;99.90;;;;;;5065930;28;20435;-72
2023/08/02 04:16:06;;;;;;;9.43;1.73;;;15.60;99.90;;;;;;5048982;28;20603;-71
2023/08/02 04:18:32;;;;;;;4.80;1.50;;;15.70;99.90;;;;;;5066909;28;20040;-72
2023/08/02 04:20:59;;;;;;;6.20;2.20;;;15.70;99.90;;;;;;5048067;28;20073;-72
2023/08/02 04:23:26;;;;;;;6.30;2.00;;;15.70;99.90;;;;;;5048921;28;20071;-72
2023/08/02 04:25:52;;;;;;;7.30;1.55;;;15.70;99.90;;;;;;5065675;28;20082;-72
2023/08/02 04:28:17;;;;;;;6.38;1.27;;;15.80;99.90;;;;;;5049001;28;20032;-72
2023/08/02 04:30:48;;;;;;;5.20;1.27;;;15.80;99.90;;;;;;5066185;28;20401;-72
2023/08/02 04:33:14;;;;;;;6.70;1.65;;;15.80;99.90;;;;;;5066676;28;20028;-72
2023/08/02 04:35:39;;;;;;;4.53;1.42;;;15.80;99.90;;;;;;5047810;28;20032;-73
2023/08/02 04:38:05;;;;;;;14.55;2.38;;;15.80;99.90;;;;;;5048823;28;20040;-72
2023/08/02 04:40:30;;;;;;;5.82;1.45;;;15.70;99.90;;;;;;5048717;28;20041;-72
2023/08/02 04:42:56;;;;;;;4.97;1.38;;;15.70;99.90;;;;;;5065809;28;20115;-72
2023/08/02 04:45:21;;;;;;;7.82;1.80;;;15.60;99.90;;;;;;5066612;28;20583;-71
2023/08/02 04:47:47;;;;;;;7.25;1.90;;;15.60;99.90;;;;;;5047727;28;20421;-72
2023/08/02 04:50:12;;;;;;;6.32;1.52;;;15.60;99.90;;;;;;5048701;28;20495;-73
2023/08/02 04:52:38;;;;;;;8.02;1.80;;;15.60;99.90;;;;;;5065588;28;20118;-73
2023/08/02 04:55:05;;;;;;;6.75;2.00;;;15.60;99.90;;;;;;5066398;28;20119;-72
2023/08/02 04:57:31;;;;;;;5.78;1.30;;;15.60;99.90;;;;;;5066667;28;20041;-72
2023/08/02 04:59:57;;;;;;;6.25;1.67;;;15.70;99.90;;;;;;5065280;28;20044;-73
2023/08/02 05:02:28;;;;;;;6.30;1.63;;;15.70;99.90;;;;;;5066676;28;20067;-71
2023/08/02 05:04:54;;;;;;;5.65;1.67;;;15.70;99.90;;;;;;5061731;28;20139;-72
2023/08/02 05:07:20;;;;;;;4.45;1.85;;;15.70;99.90;;;;;;5065980;28;20250;-72
2023/08/02 05:09:45;;;;;;;5.85;1.83;;;15.80;99.90;;;;;;5065214;28;20040;-72
2023/08/02 05:12:11;;;;;;;5.68;1.90;;;15.80;99.90;;;;;;5066235;28;20036;-73
2023/08/02 05:14:36;;;;;;;4.22;1.45;;;15.70;99.90;;;;;;5065549;28;20400;-72
2023/08/02 05:17:07;;;;;;;4.13;1.38;;;15.70;99.90;;;;;;5048634;28;20131;-72
2023/08/02 05:19:33;;;;;;;7.93;1.55;;;15.70;99.90;;;;;;5066172;28;20455;-72
2023/08/02 05:21:58;;;;;;;9.27;1.80;;;15.80;99.90;;;;;;5065483;28;20033;-71
2023/08/02 05:24:24;;;;;;;7.55;1.92;;;15.70;99.90;;;;;;5064833;28;20082;-72
2023/08/02 05:26:49;;;;;;;6.35;1.95;;;15.80;99.90;;;;;;5063384;28;20033;-71
2023/08/02 05:29:15;;;;;;;9.70;2.22;;;15.80;99.90;;;;;;5064201;28;20508;-70
2023/08/02 05:31:41;;;;;;;7.20;1.63;;;15.80;99.90;;;;;;5047081;28;20098;-72
2023/08/02 05:34:06;;;;;;;5.32;1.92;;;15.70;99.90;;;;;;5046543;28;20482;-73
2023/08/02 05:36:32;;;;;;;8.10;2.40;;;15.80;99.90;;;;;;5047611;28;20039;-73
2023/08/02 05:38:57;;;;;;;8.95;2.45;;;15.70;99.90;;;;;;5046394;28;20452;-72
2023/08/02 05:41:23;;;;;;;6.93;2.13;;;15.70;99.90;;;;;;5065094;28;20036;-71
2023/08/02 05:43:49;;;;;;;6.18;2.00;;;15.70;99.90;;;;;;5046347;28;20067;-72
2023/08/02 05:46:14;;;;;;;5.18;1.95;;;15.60;99.90;;;;;;5067844;28;20059;-72
2023/08/02 05:48:40;;;;;;;9.25;2.10;;;15.60;99.90;;;;;;5068953;28;20401;-73
2023/08/02 05:51:05;;;;;;;6.57;2.33;;;15.60;99.90;;;;;;5051725;28;20032;-73
2023/08/02 05:53:31;;;;;;;5.82;1.70;;;15.60;99.90;;;;;;5051664;28;20043;-72
2023/08/02 05:55:57;;;;;;;11.00;2.50;;;15.60;99.90;;;;;;5066971;28;20066;-72
2023/08/02 05:58:23;;;;;;;7.50;2.08;;;15.60;99.90;;;;;;5068771;28;20047;-71
2023/08/02 06:00:49;;;;;;;9.02;2.53;;;15.60;99.90;;;;;;5049663;28;20448;-72
2023/08/02 06:03:14;;;;;;;8.60;2.22;;;15.60;99.90;;;;;;5068731;28;20063;-72
2023/08/02 06:05:40;;;;;;;7.88;2.08;;;15.60;99.90;;;;;;5048912;28;20105;-74
2023/08/02 06:08:06;;;;;;;8.95;2.38;;;15.60;99.90;;;;;;5068543;28;20029;-72
2023/08/02 06:10:32;;;;;;;6.28;2.30;;;15.50;99.90;;;;;;5068043;28;20033;-73
2023/08/02 06:12:57;;;;;;;5.32;1.88;;;15.50;99.90;;;;;;5067629;28;20032;-72
2023/08/02 06:15:23;;;;;;;5.60;2.10;;;15.50;99.90;;;;;;5068225;28;20048;-71
2023/08/02 06:17:49;;;;;;;6.30;2.05;;;15.50;99.90;;;;;;5067483;28;20509;-72
2023/08/02 06:20:14;;;;;;;4.15;1.92;;;15.50;99.90;;;;;;5068156;28;20082;-74
2023/08/02 06:22:40;;;;;;;7.15;1.70;;;15.50;99.90;;;;;;5049138;28;20055;-72
2023/08/02 06:25:06;;;;;;;7.38;2.22;;;15.50;99.90;;;;;;5067978;28;20405;-72
2023/08/02 06:27:32;;;;;;;4.60;2.15;;;15.50;99.90;;;;;;5067628;28;20040;-72
2023/08/02 06:29:57;;;;;;;6.00;2.45;;;15.50;99.90;;;;;;5066972;28;20044;-72
2023/08/02 06:32:23;;;;;;;4.53;2.10;;;15.50;99.90;;;;;;5068244;28;20044;-73
2023/08/02 06:34:49;;;;;;;3.75;1.92;;;15.50;99.90;;;;;;5062958;28;20037;-71
2023/08/02 06:37:14;;;;;;;16.75;3.38;;;15.50;99.90;;;;;;5066071;28;20063;-73
2023/08/02 06:39:40;;;;;;;7.03;2.03;;;15.60;99.90;;;;;;5048918;28;20102;-73
2023/08/02 06:42:06;;;;;;;3.75;1.60;;;15.50;99.90;;;;;;5067613;28;20116;-72
2023/08/02 06:44:31;;;;;;;4.75;1.25;;;15.60;99.90;;;;;;5049757;28;20060;-72
2023/08/02 06:46:57;;;;;;;5.45;2.72;;;15.60;99.90;;;;;;5066483;28;20028;-72
2023/08/02 06:49:23;;;;;;;5.55;1.60;;;15.60;99.90;;;;;;5047969;28;20183;-72
2023/08/02 06:51:48;;;;;;;4.18;1.63;;;15.60;99.90;;;;;;5064622;28;20036;-72
2023/08/02 06:54:14;;;;;;;3.95;1.55;;;15.60;99.90;;;;;;5065935;28;20032;-72
2023/08/02 06:56:39;;;;;;;6.75;1.90;;;15.60;99.90;;;;;;5063673;28;20128;-73
2023/08/02 06:59:05;;;;;;;11.93;2.65;;;15.70;99.90;;;;;;5065446;28;20025;-72
2023/08/02 07:01:30;;;;;;;4.63;1.30;;;15.70;99.90;;;;;;5047197;28;20079;-71
2023/08/02 07:03:56;;;;;;;2.17;1.27;;;15.70;99.90;;;;;;5064373;28;20036;-72
2023/08/02 07:06:21;;;;;;;3.05;1.23;;;15.70;99.90;;;;;;5047216;28;20028;-71
2023/08/02 07:08:49;;;;;;;4.53;1.88;;;15.80;99.90;;;;;;5064186;28;20390;-71
2023/08/02 07:11:15;;;;;;;2.05;1.20;;;15.80;99.90;;;;;;5047081;28;20089;-72
2023/08/02 07:13:44;;;;;;;2.45;0.98;;;15.80;99.90;;;;;;5063084;28;20024;-72
2023/08/02 07:16:10;;;;;;;5.20;1.33;;;15.80;99.90;;;;;;5065430;28;20082;-72
2023/08/02 07:18:36;;;;;;;2.17;1.27;;;15.90;99.90;;;;;;5063721;28;20111;-73
2023/08/02 07:21:06;;;;;;;4.03;1.35;;;15.80;99.90;;;;;;5047199;28;20647;-72
2023/08/02 07:23:32;;;;;;;5.22;1.02;;;15.80;99.90;;;;;;5047129;28;20041;-72
2023/08/02 07:25:58;;;;;;;3.08;1.35;;;15.80;99.90;;;;;;5063599;28;20478;-72
2023/08/02 07:28:23;;;;;;;3.53;1.13;;;15.90;99.90;;;;;;5065232;28;20501;-72
2023/08/02 07:30:49;;;;;;;5.28;1.38;;;15.80;99.90;;;;;;5063745;28;20021;-74
2023/08/02 07:33:14;;;;;;;2.55;1.02;;;15.80;99.90;;;;;;5046763;28;20033;-72
2023/08/02 07:35:40;;;;;;;2.35;0.73;;;15.80;99.90;;;;;;5063598;28;20116;-73
2023/08/02 07:38:06;;;;;;;6.70;1.00;;;15.80;99.90;;;;;;5064101;28;20047;-72
2023/08/02 07:40:31;;;;;;;1.42;0.80;;;15.80;99.90;;;;;;5064738;28;20041;-73
2023/08/02 07:42:57;;;;;;;1.80;0.90;;;15.80;99.90;;;;;;5063444;28;20088;-71
2023/08/02 07:45:23;;;;;;;3.60;1.25;;;15.80;99.90;;;;;;5046885;28;20141;-71
2023/08/02 07:47:48;;;;;;;1.70;0.70;;;15.90;99.90;;;;;;5045294;28;20494;-72
2023/08/02 07:50:14;;;;;;;1.98;0.65;;;15.90;99.90;;;;;;5064142;28;20033;-72
2023/08/02 07:52:39;;;;;;;3.45;0.82;;;16.00;99.90;;;;;;5044843;28;20485;-73
2023/08/02 07:55:05;;;;;;;3.25;0.75;;;16.00;99.90;;;;;;5046494;28;20128;-73
2023/08/02 07:57:32;;;;;;;2.25;0.50;;;16.00;99.90;;;;;;5064325;28;20052;-72
2023/08/02 07:59:59;;;;;;;2.53;0.88;;;16.00;99.90;;;;;;5045113;28;20040;-72
2023/08/02 08:02:28;;;;;;;0.85;0.40;;;16.00;99.90;;;;;;5064562;28;20760;-72
2023/08/02 08:04:56;;;;;;;1.00;0.60;;;16.00;99.90;;;;;;5062755;28;20047;-72
2023/08/02 08:07:22;;;;;;;0.75;0.40;;;16.00;99.90;;;;;;5063835;28;20121;-72
2023/08/02 08:09:50;;;;;;;2.92;0.70;;;16.00;99.90;;;;;;5063005;28;20079;-72
2023/08/02 08:12:16;;;;;;;2.78;0.55;;;16.00;99.90;;;;;;5063183;28;20508;-72
2023/08/02 08:14:42;;;;;;;0.45;0.30;;;16.10;99.90;;;;;;5063596;28;20052;-72
2023/08/02 08:17:08;;;;;;;1.77;0.40;;;16.10;99.90;;;;;;5063801;28;20041;-73
2023/08/02 08:19:33;;;;;;;1.65;0.43;;;16.10;99.90;;;;;;5046611;28;20049;-72
2023/08/02 08:21:59;;;;;;;1.30;0.50;;;16.10;99.90;;;;;;5062925;28;20047;-73
2023/08/02 08:24:25;;;;;;;0.90;0.43;;;16.10;99.90;;;;;;5045830;28;20047;-72
2023/08/02 08:26:50;;;;;;;0.70;0.30;;;16.10;99.90;;;;;;5045516;28;20028;-73
2023/08/02 08:29:17;;;;;;;2.38;0.95;;;16.20;99.90;;;;;;5045976;28;20395;-72
2023/08/02 08:31:42;;;;;;;0.60;0.30;;;16.30;99.90;;;;;;5059861;28;20505;-73
2023/08/02 08:34:08;;;;;;;1.00;0.30;;;16.40;99.90;;;;;;5064484;28;20040;-72
2023/08/02 08:36:34;;;;;;;2.75;0.38;;;16.40;99.90;;;;;;5063967;28;20045;-74
2023/08/02 08:38:59;;;;;;;0.50;0.30;;;16.50;99.90;;;;;;5063150;28;20489;-72
2023/08/02 08:41:25;;;;;;;0.75;0.20;;;16.50;99.90;;;;;;5064355;28;20036;-73
2023/08/02 08:43:51;;;;;;;0.30;0.20;;;16.50;99.90;;;;;;5062908;28;20129;-73
2023/08/02 08:46:17;;;;;;;0.85;0.20;;;16.60;99.90;;;;;;5063728;28;20025;-72
2023/08/02 08:48:43;;;;;;;0.43;0.20;;;16.60;99.90;;;;;;5045290;28;20185;-73
2023/08/02 08:51:10;;;;;;;1.38;0.50;;;16.60;99.90;;;;;;5045237;28;20570;-72
2023/08/02 08:53:39;;;;;;;2.83;0.35;;;16.80;99.90;;;;;;5062931;28;20063;-73
2023/08/02 08:56:04;;;;;;;0.73;0.40;;;16.90;99.90;;;;;;5045344;28;20039;-71
2023/08/02 08:58:34;;;;;;;1.05;0.40;;;17.00;99.90;;;;;;5063679;28;20402;-72
2023/08/02 09:01:03;;;;;;;0.93;0.52;;;17.10;99.90;;;;;;5045261;28;20039;-72
2023/08/02 09:03:29;;;;;;;1.75;0.80;;;17.20;99.90;;;;;;5063378;28;20036;-72
2023/08/02 09:06:04;;;;;;;0.68;0.30;;;17.30;99.90;;;;;;5062713;28;20123;-73
2023/08/02 09:08:42;;;;;;;1.33;0.47;;;17.40;99.90;;;;;;5064084;28;20029;-72
2023/08/02 09:11:08;;;;;;;0.93;0.75;;;17.50;99.90;;;;;;5062544;28;20481;-73
2023/08/02 09:13:33;;;;;;;1.75;0.60;;;17.70;99.90;;;;;;5044234;28;20029;-73
2023/08/02 09:16:13;;;;;;;0.88;0.52;;;17.80;99.90;;;;;;5061896;28;20433;-73
2023/08/02 09:18:43;;;;;;;0.80;0.50;;;18.00;99.90;;;;;;5044007;28;20063;-72
2023/08/02 09:21:09;;;;;;;;;;;18.00;99.90;;;;;;5066256;28;20123;-72
2023/08/02 09:23:35;;;;;;;2.67;0.50;;;18.00;99.90;;;;;;5065907;28;19931;-74
2023/08/02 09:26:19;;;;;;;3.75;0.70;;;17.90;99.90;;;;;;5049093;28;20651;-73
2023/08/02 09:28:59;;;;;;;0.57;0.40;;;17.90;99.90;;;;;;5044909;28;20481;-72
2023/08/02 09:31:26;;;;;;;0.98;0.50;;;18.00;99.90;;;;;;5049051;28;20037;-73
2023/08/02 09:33:53;;;;;;;0.90;0.60;;;18.10;99.90;;;;;;5047183;28;20541;-73
2023/08/02 09:36:30;;;;;;;1.40;0.57;;;18.10;99.90;;;;;;5067934;28;20060;-74
2023/08/02 09:39:01;;;;;;;1.27;0.52;;;18.20;99.90;;;;;;5065735;28;20082;-73
2023/08/02 09:41:28;;;;;;;0.40;0.30;;;18.30;99.90;;;;;;5049253;28;20071;-72
2023/08/02 09:43:54;;;;;;;2.30;0.32;;;18.20;99.90;;;;;;5067003;28;20044;-72
2023/08/02 09:46:30;;;;;;;0.80;0.50;;;18.20;99.90;;;;;;5065336;28;20029;-72
2023/08/02 09:48:59;;;;;;;0.95;0.50;;;18.20;99.90;;;;;;5048315;28;20098;-73
2023/08/02 09:51:41;;;;;;;0.90;0.57;;;18.20;99.90;;;;;;5067438;28;20036;-72
2023/08/02 09:54:07;;;;;;;1.02;0.35;;;18.10;99.90;;;;;;5066361;28;20040;-72
2023/08/02 09:56:35;;;;;;;0.68;0.47;;;18.20;99.90;;;;;;5049388;28;20371;-73
2023/08/02 09:59:02;;;;;;;1.52;0.70;;;18.30;99.90;;;;;;5066833;28;20394;-72
2023/08/02 10:01:29;;;;;;;1.30;0.60;;;18.50;99.90;;;;;;5067009;28;20029;-73
2023/08/02 10:03:58;;;;;;;0.85;0.65;;;18.90;99.90;;;;;;5050130;28;20048;-72
2023/08/02 10:06:38;;;;;;;1.73;0.60;;;19.20;99.90;;;;;;5047237;28;20044;-73
2023/08/02 10:09:07;;;;;;;2.95;0.50;;;19.40;99.90;;;;;;5047498;28;20040;-72
2023/08/02 10:12:00;;;;;;;1.65;0.70;;;19.40;99.90;;;;;;5048718;28;20166;-72
2023/08/02 10:14:26;;;;;;;3.55;0.90;;;19.60;99.90;;;;;;5058770;28;20048;-72
2023/08/02 10:16:52;;;;;;;0.90;0.68;;;19.80;99.90;;;;;;5065378;28;20060;-73
2023/08/02 10:19:18;;;;;;;2.25;0.50;;;20.00;99.90;;;;;;5067124;28;20119;-72
2023/08/02 10:21:45;;;;;;;2.40;0.40;;;20.30;99.90;;;;;;5066242;28;20123;-72
2023/08/02 10:24:13;;;;;;;1.27;0.20;;;20.40;99.90;;;;;;5048878;28;20047;-72
2023/08/02 10:26:39;;;;;;;2.83;0.45;;;20.60;99.90;;;;;;5065682;28;20127;-73
2023/08/02 10:29:07;;;;;;;0.90;0.38;;;20.50;99.90;;;;;;5065031;28;20040;-72
2023/08/02 10:31:34;;;;;;;1.08;0.40;;;20.40;99.90;;;;;;5064810;28;20033;-72
2023/08/02 10:33:59;;;;;;;3.20;0.30;;;20.50;99.90;;;;;;5064750;28;20068;-73
2023/08/02 10:36:25;;;;;;;1.05;0.28;;;20.60;99.90;;;;;;5065095;28;20048;-73
2023/08/02 10:38:55;;;;;;;2.72;0.30;;;20.50;99.90;;;;;;5044326;28;20048;-73
2023/08/02 10:41:25;;;;;;;3.58;0.30;;;20.40;99.90;;;;;;5047219;28;20604;-72
2023/08/02 10:43:53;;;;;;;1.95;0.20;;;20.20;99.90;;;;;;5064457;28;20401;-72
2023/08/02 10:46:27;;;;;;;4.13;0.30;;;20.30;99.90;;;;;;5047854;28;20039;-72
2023/08/02 10:49:13;;;;;;;2.88;0.43;;;20.20;99.90;;;;;;5063422;28;20036;-72
2023/08/02 10:51:39;;;;;;;3.63;0.80;;;20.10;99.90;;;;;;5062865;28;20037;-72
2023/08/02 10:54:21;;;;;;;3.03;0.70;;;20.10;99.90;;;;;;5065906;28;20032;-72
2023/08/02 10:56:57;;;;;;;4.93;0.40;;;20.30;99.90;;;;;;5045298;28;20124;-72
2023/08/02 10:59:22;;;;;;;2.50;0.40;;;20.50;99.90;;;;;;5064118;28;20048;-71
2023/08/02 11:01:59;;;;;;;4.35;0.95;;;20.70;99.90;;;;;;5045930;28;20037;-72
2023/08/02 11:04:26;;;;;;;3.67;0.60;;;20.80;99.90;;;;;;5064836;28;20044;-72
2023/08/02 11:06:52;;;;;;;9.60;1.60;;;20.80;99.90;;;;;;5064402;28;20036;-73
2023/08/02 11:09:28;;;;;;;8.85;1.00;;;20.90;99.90;;;;;;5065305;28;20360;-73
2023/08/02 11:11:54;;;;;;;3.17;0.68;;;20.90;99.90;;;;;;5046006;28;20048;-71
2023/08/02 11:14:27;;;;;;;4.72;1.00;;;20.90;99.90;;;;;;5047029;28;20024;-72
2023/08/02 11:16:53;;;;;;;5.15;0.90;;;20.90;99.90;;;;;;5044039;28;20037;-71
2023/08/02 11:19:22;;;;;;;6.45;1.10;;;20.90;99.90;;;;;;5064168;28;20040;-71
2023/08/02 11:21:55;;;;;;;6.95;1.40;;;20.80;99.90;;;;;;5059933;28;20152;-71
2023/08/02 11:24:21;;;;;;;5.82;0.60;;;20.90;99.90;;;;;;5063281;28;20048;-71
2023/08/02 11:26:57;;;;;;;4.20;0.65;;;21.00;99.90;;;;;;5059313;28;20032;-72
2023/08/02 11:29:23;;;;;;;4.85;0.80;;;21.20;99.90;;;;;;5064745;28;20032;-71
2023/08/02 11:31:52;;;;;;;2.60;0.52;;;21.20;99.90;;;;;;5046018;28;20047;-72
2023/08/02 11:34:18;;;;;;;9.95;1.23;;;21.20;99.90;;;;;;5063060;28;20047;-72
2023/08/02 11:36:48;;;;;;;2.97;0.77;;;21.30;99.90;;;;;;5063297;28;20029;-72
2023/08/02 11:39:18;;;;;;;2.30;0.40;;;21.30;99.90;;;;;;5065451;28;20064;-72
2023/08/02 11:41:44;;;;;;;6.28;1.10;;;21.20;99.90;;;;;;5062998;28;20051;-72
2023/08/02 11:44:19;;;;;;;6.05;0.70;;;21.30;99.90;;;;;;5063774;28;20040;-71
2023/08/02 11:46:55;;;;;;;2.17;0.35;;;21.30;99.90;;;;;;5063260;28;20127;-72
2023/08/02 11:49:21;;;;;;;1.88;0.10;;;21.30;99.90;;;;;;5064634;28;20045;-72
2023/08/02 11:51:47;;;;;;;0.43;0.20;;;21.20;99.90;;;;;;5063722;28;20101;-72
2023/08/02 11:54:13;;;;;;;3.22;0.20;;;21.20;99.90;;;;;;5064533;28;20031;-71
2023/08/02 11:56:39;;;;;;;1.98;0.30;;;21.20;99.90;;;;;;5066404;28;20040;-72
2023/08/02 11:59:11;;;;;;;1.73;0.17;;;21.20;99.90;;;;;;5067363;28;20032;-71
2023/08/02 12:01:41;;;;;;;1.52;0.35;;;21.20;99.90;;;;;;5066325;28;20497;-73
2023/08/02 12:04:08;;;;;;;8.00;1.35;;;21.40;99.90;;;;;;5067111;28;20174;-72
2023/08/02 12:07:03;;;;;;;2.67;0.10;;;21.40;99.90;;;;;;5049498;28;20632;-72
2023/08/02 12:09:41;;;;;;;1.58;0.22;;;21.40;99.90;;;;;;5031212;28;20478;-71
2023/08/02 12:12:06;;;;;;;1.65;0.45;;;21.50;99.90;;;;;;5045192;28;20067;-71
2023/08/02 12:14:32;;;;;;;4.15;0.30;;;21.50;99.90;;;;;;5066493;28;20485;-71
2023/08/02 12:16:57;;;;;;;1.88;0.20;;;21.50;99.90;;;;;;5047986;28;20097;-71
2023/08/02 12:19:39;;;;;;;3.10;0.57;;;21.70;99.90;;;;;;5066828;28;21757;-73
2023/08/02 12:22:05;;;;;;;1.73;0.15;;;21.80;99.90;;;;;;5044997;28;20033;-71
2023/08/02 12:24:31;;;;;;;2.60;0.52;;;21.80;99.90;;;;;;5066890;28;20133;-72
2023/08/02 12:26:56;;;;;;;0.95;0.30;;;21.80;99.90;;;;;;5065971;28;20044;-72
2023/08/02 12:29:26;;;;;;;2.88;0.40;;;21.70;99.90;;;;;;5066980;28;20448;-71
2023/08/02 12:31:55;;;;;;;8.55;0.55;;;21.70;99.90;;;;;;5047771;28;20071;-72
2023/08/02 12:34:25;;;;;;;3.33;0.32;;;21.60;99.90;;;;;;5065909;28;20052;-72
2023/08/02 12:36:50;;;;;;;2.92;0.43;;;21.60;99.90;;;;;;5064408;28;20074;-72
2023/08/02 12:39:16;;;;;;;3.70;0.30;;;21.50;99.90;;;;;;5048427;28;20539;-72
2023/08/02 12:41:41;;;;;;;1.33;0.30;;;21.70;99.90;;;;;;5065059;28;20048;-72
2023/08/02 12:44:07;;;;;;;0.85;0.30;;;21.80;99.90;;;;;;5065329;28;20037;-72
2023/08/02 12:46:32;;;;;;;3.35;0.90;;;22.00;99.90;;;;;;5066361;28;20088;-72
2023/08/02 12:48:58;;;;;;;3.00;0.55;;;22.10;99.90;;;;;;5065633;28;20042;-72
2023/08/02 12:51:24;;;;;;;2.60;0.38;;;22.10;99.90;;;;;;5066789;28;20071;-71
2023/08/02 12:53:49;;;;;;;1.20;0.45;;;22.20;99.90;;;;;;5065501;28;20032;-73
2023/08/02 12:56:15;;;;;;;1.38;0.30;;;22.20;99.90;;;;;;5052313;28;20032;-71
2023/08/02 12:58:41;;;;;;;2.10;0.20;;;22.20;99.90;;;;;;5069594;28;20041;-72
2023/08/02 13:01:06;;;;;;;4.00;0.30;;;22.40;99.90;;;;;;5052964;28;20507;-72